メインページ
METAR-TAF:

METAR-TAF

空港 :

レシフェ, ペルナンブーコ州, ブラジル

レシフェ/グアララペス・ジルベルト・フレイレ国際空港

緯度: 08-08S, 経度: 034-55W, 海抜: 19m

現時点の気象観測

当レポートは41分前の00:00(UTC)に作成
北東の風 7kt、からの間で変化する
気温 27°C
湿度 79%
気圧 1012 hPa
視程10km以上
高度1800ftの雲は散在している

METAR: SBRF 120000Z 05007KT 010V100 9999 SCT018 27/23 Q1012

時間: 21:41 (00:41 UTC)

予報

当レポートは2時間41分前の22:00(UTC)に作成
予報は12日の 00時(UTC)から 12日の 24時(UTC)まで有効
北/北東の風 9kt
視程10km以上
高度2000ftの雲は散在している
12日の 03時(UTC)から 12日の 05時(UTC)まで徐々に
北/北西の風 5kt
12日の 10時(UTC)から 12日の 12時(UTC)まで徐々に
北東の風 11kt
12日の 21時(UTC)から 12日の 22時(UTC)まで徐々に
北東の風 8kt

TAF: SBRF 112200Z 1200/1224 03009KT 9999 SCT020 TN25/1208Z TX31/1215Z BECMG 1203/1205 33005KT BECMG 1210/1212 05011KT BECMG 1221/1222 04008KT RM K PEI

4,000以上の空港の気象観測と天気予報(METAR報とTAF報)

利用可能な観測所は地図上に黄色い丸と赤い丸で示す。

丸の上にカーソルを重ねると観測所名を参照できる。

次にクリックすると気象観測と天気予報を参照できる。

マップの切り替え:黒色「×」印の緑ボタンをクリックして拡大、「-」印の緑ボタンをクリックして縮小、緑色の三角印をクリックして隣りの地図に切り替え


METAR-TAF: